createdAt,value
2018-06-02T00:01:53.173Z,44.80
2018-06-02T00:04:21.027Z,44.80
2018-06-02T00:06:48.808Z,44.80
2018-06-02T00:09:16.676Z,44.80
2018-06-02T00:11:44.556Z,44.80
2018-06-02T00:14:12.336Z,44.70
2018-06-02T00:16:41.054Z,44.80
2018-06-02T00:19:08.984Z,44.70
2018-06-02T00:21:37.667Z,44.70
2018-06-02T00:24:05.575Z,44.70
2018-06-02T00:26:33.403Z,44.70
2018-06-02T00:29:01.367Z,44.80
2018-06-02T00:31:30.077Z,44.90
2018-06-02T00:33:57.969Z,44.70
2018-06-02T00:36:25.802Z,44.70
2018-06-02T00:38:53.587Z,44.80
2018-06-02T00:41:21.528Z,44.80
2018-06-02T00:43:50.090Z,44.70
2018-06-02T00:46:18.000Z,44.60
2018-06-02T00:48:45.912Z,44.80
2018-06-02T00:51:13.724Z,44.70
2018-06-02T00:53:41.524Z,44.70
2018-06-02T00:56:09.555Z,44.70
2018-06-02T00:58:37.384Z,44.80
2018-06-02T01:01:05.167Z,44.80
2018-06-02T01:03:33.910Z,44.80
2018-06-02T01:06:01.754Z,45.30
2018-06-02T01:08:29.590Z,44.80
2018-06-02T01:10:57.404Z,44.70
2018-06-02T01:13:25.438Z,44.70
2018-06-02T01:15:53.268Z,44.70
2018-06-02T01:18:21.229Z,44.80
2018-06-02T01:20:50.013Z,44.80
2018-06-02T01:23:17.877Z,44.60
2018-06-02T01:25:45.755Z,44.70
2018-06-02T01:28:14.409Z,44.70
2018-06-02T01:30:42.849Z,44.60
2018-06-02T01:33:10.675Z,44.60
2018-06-02T01:35:38.559Z,44.70
2018-06-02T01:38:07.151Z,44.80
2018-06-02T01:40:35.019Z,44.70
2018-06-02T01:43:02.854Z,44.70
2018-06-02T01:45:30.814Z,44.70
2018-06-02T01:47:58.621Z,44.60
2018-06-02T01:50:26.558Z,44.70
2018-06-02T01:52:55.300Z,44.70
2018-06-02T01:55:23.137Z,44.60
2018-06-02T01:57:50.996Z,44.70
2018-06-02T02:00:18.802Z,44.60
2018-06-02T02:02:46.650Z,44.60
2018-06-02T02:05:14.463Z,44.60
2018-06-02T02:07:43.159Z,44.60
2018-06-02T02:10:11.773Z,44.70
2018-06-02T02:12:39.758Z,44.60
2018-06-02T02:15:07.653Z,44.60
2018-06-02T02:17:35.492Z,44.60
2018-06-02T02:20:03.349Z,44.70
2018-06-02T02:22:31.119Z,44.60
2018-06-02T02:24:58.988Z,45.30
2018-06-02T02:27:26.772Z,44.60
2018-06-02T02:29:54.576Z,44.60
2018-06-02T02:32:22.540Z,44.60
2018-06-02T02:34:50.476Z,44.60
2018-06-02T02:37:19.279Z,44.70
2018-06-02T02:39:47.165Z,44.60
2018-06-02T02:42:15.220Z,44.60
2018-06-02T02:44:43.747Z,44.60
2018-06-02T02:47:11.685Z,44.60
2018-06-02T02:49:39.695Z,45.30
2018-06-02T02:52:07.590Z,44.70
2018-06-02T02:54:35.449Z,44.60
2018-06-02T02:57:03.313Z,44.60
2018-06-02T02:59:31.981Z,44.60
2018-06-02T03:01:59.829Z,44.60
2018-06-02T03:04:27.765Z,44.60
2018-06-02T03:06:55.506Z,44.60
2018-06-02T03:09:23.551Z,44.60
2018-06-02T03:11:51.293Z,44.60
2018-06-02T03:14:19.089Z,44.60
2018-06-02T03:16:47.796Z,44.60
2018-06-02T03:19:15.755Z,44.60
2018-06-02T03:21:44.298Z,44.60
2018-06-02T03:24:12.250Z,44.60
2018-06-02T03:26:40.098Z,44.60
2018-06-02T03:29:07.943Z,44.60
2018-06-02T03:31:35.805Z,44.60
2018-06-02T03:34:03.686Z,44.60
2018-06-02T03:36:31.548Z,44.60
2018-06-02T03:38:59.445Z,44.60
2018-06-02T03:41:27.491Z,44.60
2018-06-02T03:43:55.315Z,44.60
2018-06-02T03:46:24.050Z,44.60
2018-06-02T03:48:51.852Z,44.60
2018-06-02T03:51:21.428Z,44.60
2018-06-02T03:53:49.276Z,44.60
2018-06-02T03:56:17.121Z,44.60
2018-06-02T03:58:45.899Z,44.60
2018-06-02T04:01:13.921Z,44.60
2018-06-02T04:03:41.675Z,44.60
2018-06-02T04:06:09.644Z,44.60
2018-06-02T04:08:37.503Z,44.60
2018-06-02T04:11:06.268Z,44.60
2018-06-02T04:13:34.244Z,44.60
2018-06-02T04:16:02.149Z,44.60
2018-06-02T04:18:29.931Z,44.60
2018-06-02T04:20:58.484Z,44.60
2018-06-02T04:23:26.462Z,44.60
2018-06-02T04:25:54.257Z,44.60
2018-06-02T04:28:22.869Z,44.60
2018-06-02T04:30:50.674Z,44.60
2018-06-02T04:33:18.569Z,44.60
2018-06-02T04:35:46.404Z,44.60
2018-06-02T04:38:14.173Z,44.60
2018-06-02T04:40:42.018Z,44.60
2018-06-02T04:43:09.808Z,44.60
2018-06-02T04:45:38.516Z,44.60
2018-06-02T04:48:06.336Z,44.60
2018-06-02T04:50:34.170Z,44.60
2018-06-02T04:53:02.088Z,44.60
2018-06-02T04:55:29.876Z,44.60
2018-06-02T04:57:57.687Z,44.60
2018-06-02T05:00:25.446Z,44.70
2018-06-02T05:02:53.210Z,44.60
2018-06-02T05:05:21.058Z,44.60
2018-06-02T05:07:48.813Z,44.60
2018-06-02T05:10:16.537Z,44.60
2018-06-02T05:12:45.035Z,44.60
2018-06-02T05:15:13.030Z,44.60
2018-06-02T05:17:40.749Z,44.60
2018-06-02T05:20:09.253Z,44.60
2018-06-02T05:22:37.156Z,44.60
2018-06-02T05:25:05.030Z,44.60
2018-06-02T05:27:32.894Z,44.60
2018-06-02T05:30:00.792Z,44.50
2018-06-02T05:32:29.370Z,44.60
2018-06-02T05:34:57.984Z,44.60
2018-06-02T05:37:25.742Z,44.60
2018-06-02T05:39:53.516Z,44.60
2018-06-02T05:42:21.547Z,44.60
2018-06-02T05:44:50.096Z,44.60
2018-06-02T05:47:18.207Z,44.50
2018-06-02T05:49:46.025Z,45.10
2018-06-02T05:52:13.762Z,44.50
2018-06-02T05:54:41.714Z,44.60
2018-06-02T05:57:09.821Z,44.50
2018-06-02T05:59:37.703Z,44.60
2018-06-02T06:02:05.553Z,45.10
2018-06-02T06:04:33.590Z,44.50
2018-06-02T06:07:01.574Z,44.40
2018-06-02T06:09:29.443Z,44.50
2018-06-02T06:11:57.210Z,44.40
2018-06-02T06:14:25.154Z,44.40
2018-06-02T06:16:52.983Z,44.30
2018-06-02T06:19:21.643Z,44.40
2018-06-02T06:21:49.406Z,44.30
2018-06-02T06:24:18.117Z,44.20
2018-06-02T06:26:46.619Z,44.20
2018-06-02T06:29:14.386Z,44.20
2018-06-02T06:31:42.182Z,44.20
2018-06-02T06:34:10.034Z,44.20
2018-06-02T06:36:37.862Z,44.20
2018-06-02T06:39:06.482Z,44.20
2018-06-02T06:41:34.948Z,44.20
2018-06-02T06:44:03.784Z,44.20
2018-06-02T06:46:31.756Z,44.30
2018-06-02T06:48:59.493Z,44.20
2018-06-02T06:51:27.270Z,44.20
2018-06-02T06:53:55.042Z,44.10
2018-06-02T06:56:22.873Z,44.10
2018-06-02T06:58:50.705Z,44.10
2018-06-02T07:01:18.571Z,44.10
2018-06-02T07:03:46.347Z,44.00
2018-06-02T07:06:14.277Z,44.00
2018-06-02T07:08:42.065Z,44.10
2018-06-02T07:11:09.909Z,44.00
2018-06-02T07:13:38.467Z,44.00
2018-06-02T07:16:06.358Z,44.00
2018-06-02T07:18:34.954Z,44.00
2018-06-02T07:21:02.775Z,44.00
2018-06-02T07:23:30.621Z,44.10
2018-06-02T07:25:58.483Z,44.00
2018-06-02T07:28:26.475Z,43.90
2018-06-02T07:30:54.378Z,44.00
2018-06-02T07:33:23.009Z,44.10
2018-06-02T07:35:50.953Z,43.90
2018-06-02T07:38:18.729Z,43.90
2018-06-02T07:40:46.505Z,44.00
2018-06-02T07:43:14.423Z,44.00
2018-06-02T07:45:42.214Z,44.00
2018-06-02T07:48:10.034Z,44.10
2018-06-02T07:50:37.784Z,44.00
2018-06-02T07:53:05.637Z,44.00
2018-06-02T07:55:33.343Z,44.00
2018-06-02T07:58:01.426Z,44.10
2018-06-02T08:00:29.280Z,44.00
2018-06-02T08:02:57.082Z,43.90
2018-06-02T08:05:25.051Z,44.00
2018-06-02T08:07:53.045Z,44.00
2018-06-02T08:10:20.765Z,44.00
2018-06-02T08:12:48.593Z,44.00
2018-06-02T08:15:17.290Z,44.00
2018-06-02T08:17:45.120Z,43.90
2018-06-02T08:20:12.964Z,43.90
2018-06-02T08:22:40.703Z,44.00
2018-06-02T08:25:08.538Z,44.00
2018-06-02T08:27:37.085Z,44.00
2018-06-02T08:30:04.950Z,44.00
2018-06-02T08:32:32.822Z,44.00
2018-06-02T08:35:00.664Z,44.00
2018-06-02T08:37:28.489Z,43.90
2018-06-02T08:39:56.196Z,44.00
2018-06-02T08:42:24.167Z,44.00
2018-06-02T08:44:52.031Z,44.00
2018-06-02T08:47:19.887Z,44.00
2018-06-02T08:49:47.684Z,44.00
2018-06-02T08:52:15.485Z,44.00
2018-06-02T08:54:43.332Z,44.10
2018-06-02T08:57:11.280Z,43.90
2018-06-02T08:59:39.944Z,44.00
2018-06-02T09:02:07.768Z,44.00
2018-06-02T09:04:35.694Z,44.00
2018-06-02T09:07:03.608Z,44.00
2018-06-02T09:09:36.405Z,44.00
2018-06-02T09:12:04.221Z,44.10
2018-06-02T09:14:32.159Z,44.10
2018-06-02T09:17:00.179Z,44.00
2018-06-02T09:19:27.924Z,44.00
2018-06-02T09:21:55.703Z,44.10
2018-06-02T09:24:23.649Z,44.00
2018-06-02T09:26:52.260Z,44.10
2018-06-02T09:29:20.274Z,44.00
2018-06-02T09:31:48.029Z,44.00
2018-06-02T09:34:15.825Z,44.10
2018-06-02T09:36:44.557Z,44.10
2018-06-02T09:39:12.537Z,44.10
2018-06-02T09:41:40.420Z,44.10
2018-06-02T09:44:09.075Z,44.10
2018-06-02T09:46:36.942Z,44.00
2018-06-02T09:49:04.797Z,44.00
2018-06-02T09:51:32.684Z,44.60
2018-06-02T09:54:00.471Z,44.00
2018-06-02T09:56:29.032Z,44.10
2018-06-02T09:58:56.884Z,44.00
2018-06-02T10:01:24.794Z,44.00
2018-06-02T10:03:53.457Z,44.00
2018-06-02T10:06:22.082Z,44.00
2018-06-02T10:08:49.937Z,43.90
2018-06-02T10:11:17.871Z,43.80
2018-06-02T10:13:45.780Z,43.80
2018-06-02T10:16:13.671Z,43.80
2018-06-02T10:18:41.523Z,43.80
2018-06-02T10:21:09.454Z,43.80
2018-06-02T10:23:38.087Z,43.80
2018-06-02T10:26:06.909Z,43.60
2018-06-02T10:28:34.864Z,43.70
2018-06-02T10:31:02.635Z,43.70
2018-06-02T10:33:30.515Z,43.70
2018-06-02T10:35:59.444Z,43.80
2018-06-02T10:38:27.362Z,43.70
2018-06-02T10:40:55.302Z,43.70
2018-06-02T10:43:23.118Z,43.70
2018-06-02T10:45:50.909Z,43.70
2018-06-02T10:48:18.846Z,43.60
2018-06-02T10:50:46.833Z,43.70
2018-06-02T10:53:14.821Z,43.70
2018-06-02T10:55:42.821Z,43.70
2018-06-02T10:58:10.641Z,43.70
2018-06-02T11:00:38.615Z,43.70
2018-06-02T11:03:07.359Z,43.70
2018-06-02T11:05:35.892Z,43.70
2018-06-02T11:08:03.831Z,43.60
2018-06-02T11:10:31.634Z,43.70
2018-06-02T11:12:59.397Z,43.70
2018-06-02T11:15:27.275Z,43.70
2018-06-02T11:17:55.331Z,43.80
2018-06-02T11:20:23.211Z,43.80
2018-06-02T11:22:51.060Z,43.90
2018-06-02T11:25:18.875Z,43.80
2018-06-02T11:27:46.673Z,43.80
2018-06-02T11:30:14.547Z,43.80
2018-06-02T11:32:42.337Z,43.90
2018-06-02T11:35:10.154Z,43.90
2018-06-02T11:37:38.008Z,43.90
2018-06-02T11:40:05.768Z,44.00
2018-06-02T11:42:33.603Z,43.90
2018-06-02T11:45:02.248Z,44.00
2018-06-02T11:47:30.175Z,43.90
2018-06-02T11:49:58.017Z,43.90
2018-06-02T11:52:26.753Z,43.90
2018-06-02T11:54:54.635Z,44.00
2018-06-02T11:57:22.473Z,43.90
2018-06-02T11:59:50.398Z,44.00
2018-06-02T12:02:18.166Z,44.00
2018-06-02T12:04:46.741Z,44.00
2018-06-02T12:07:14.683Z,43.90
2018-06-02T12:09:42.635Z,44.00
2018-06-02T12:12:10.485Z,44.00
2018-06-02T12:14:38.411Z,44.00
2018-06-02T12:17:07.039Z,44.00
2018-06-02T12:19:34.867Z,44.00
2018-06-02T12:22:02.748Z,43.90
2018-06-02T12:24:30.689Z,44.00
2018-06-02T12:26:58.669Z,44.00
2018-06-02T12:29:27.379Z,44.00
2018-06-02T12:31:55.203Z,43.90
2018-06-02T12:34:23.216Z,44.00
2018-06-02T12:36:51.053Z,44.10
2018-06-02T12:39:19.563Z,44.10
2018-06-02T12:41:47.483Z,44.10
2018-06-02T12:44:15.252Z,44.10
2018-06-02T12:46:43.807Z,44.10
2018-06-02T12:49:11.596Z,44.10
2018-06-02T12:51:40.053Z,44.10
2018-06-02T12:54:08.207Z,44.00
2018-06-02T12:56:36.026Z,44.00
2018-06-02T12:59:03.793Z,44.00
2018-06-02T13:01:31.629Z,44.00
2018-06-02T13:03:59.421Z,44.00
2018-06-02T13:06:27.133Z,44.00
2018-06-02T13:08:54.871Z,44.00
2018-06-02T13:11:22.723Z,44.00
2018-06-02T13:13:50.528Z,44.00
2018-06-02T13:16:18.343Z,44.00
2018-06-02T13:18:46.118Z,44.00
2018-06-02T13:21:13.833Z,44.00
2018-06-02T13:23:41.634Z,44.00
2018-06-02T13:26:09.450Z,43.90
2018-06-02T13:28:37.297Z,43.90
2018-06-02T13:31:05.085Z,44.00
2018-06-02T13:33:32.955Z,43.90
2018-06-02T13:36:00.858Z,43.90
2018-06-02T13:38:28.596Z,43.90
2018-06-02T13:40:57.343Z,44.00
2018-06-02T13:43:25.275Z,43.90
2018-06-02T13:45:53.299Z,43.90
2018-06-02T13:48:21.242Z,43.90
2018-06-02T13:50:49.120Z,43.90
2018-06-02T13:53:17.061Z,43.90
2018-06-02T13:55:44.865Z,44.00
2018-06-02T13:58:12.635Z,43.90
2018-06-02T14:00:41.194Z,44.10
2018-06-02T14:03:08.971Z,43.90
2018-06-02T14:05:36.802Z,44.10
2018-06-02T14:08:04.652Z,44.00
2018-06-02T14:10:32.619Z,43.90
2018-06-02T14:13:00.384Z,43.90
2018-06-02T14:15:28.226Z,44.00
2018-06-02T14:17:56.107Z,44.00
2018-06-02T14:20:23.882Z,44.10
2018-06-02T14:22:51.763Z,44.10
2018-06-02T14:25:19.624Z,44.10
2018-06-02T14:27:47.434Z,44.10
2018-06-02T14:30:16.058Z,44.00
2018-06-02T14:32:43.955Z,44.00
2018-06-02T14:35:11.843Z,44.00
2018-06-02T14:37:40.395Z,43.90
2018-06-02T14:40:08.165Z,43.90
2018-06-02T14:42:35.970Z,43.90
2018-06-02T14:47:45.834Z,43.90
2018-06-02T14:50:13.622Z,43.90
2018-06-02T14:52:41.477Z,43.90
2018-06-02T14:55:09.383Z,43.90
2018-06-02T14:57:37.183Z,43.80
2018-06-02T15:00:05.729Z,43.80
2018-06-02T15:02:33.686Z,43.80
2018-06-02T15:05:01.593Z,43.90
2018-06-02T15:07:30.157Z,44.00
2018-06-02T15:09:58.069Z,44.00
2018-06-02T15:12:26.021Z,44.10
2018-06-02T15:14:53.867Z,44.10
2018-06-02T15:17:22.534Z,44.00
2018-06-02T15:19:50.463Z,44.00
2018-06-02T15:22:18.368Z,44.00
2018-06-02T15:24:46.207Z,43.90
2018-06-02T15:27:14.083Z,43.90
2018-06-02T15:29:41.988Z,43.90
2018-06-02T15:32:10.713Z,43.90
2018-06-02T15:34:38.552Z,43.90
2018-06-02T15:37:06.401Z,43.90
2018-06-02T15:39:35.118Z,43.90
2018-06-02T15:42:03.114Z,43.90
2018-06-02T15:44:30.911Z,43.90
2018-06-02T15:46:59.424Z,44.00
2018-06-02T15:49:27.226Z,43.90
2018-06-02T15:51:55.057Z,43.90
2018-06-02T15:54:22.879Z,43.90
2018-06-02T15:56:51.475Z,43.90
2018-06-02T15:59:19.263Z,43.80
2018-06-02T16:01:47.142Z,43.80
2018-06-02T16:04:14.998Z,43.90
2018-06-02T16:06:42.720Z,43.80
2018-06-02T16:09:12.341Z,44.50
2018-06-02T16:11:40.249Z,43.90
2018-06-02T16:14:08.021Z,43.90
2018-06-02T16:16:35.963Z,43.80
2018-06-02T16:19:03.827Z,43.80
2018-06-02T16:21:31.542Z,43.80
2018-06-02T16:23:59.298Z,43.90
2018-06-02T16:26:27.117Z,43.90
2018-06-02T16:28:54.981Z,43.90
2018-06-02T16:31:22.892Z,43.80
2018-06-02T16:33:50.675Z,43.80
2018-06-02T16:36:19.279Z,43.80
2018-06-02T16:38:47.227Z,43.80
2018-06-02T16:41:15.764Z,43.90
2018-06-02T16:43:43.550Z,43.80
2018-06-02T16:46:11.303Z,44.10
2018-06-02T16:48:39.143Z,43.90
2018-06-02T16:51:06.954Z,43.90
2018-06-02T16:53:34.764Z,43.90
2018-06-02T16:56:02.595Z,43.90
2018-06-02T16:58:30.388Z,43.90
2018-06-02T17:00:58.342Z,43.90
2018-06-02T17:03:26.143Z,43.90
2018-06-02T17:05:54.007Z,43.90
2018-06-02T17:08:21.884Z,43.90
2018-06-02T17:10:50.280Z,43.90
2018-06-02T17:13:18.888Z,43.90
2018-06-02T17:15:46.737Z,43.90
2018-06-02T17:18:15.327Z,44.00
2018-06-02T17:20:43.038Z,43.90
2018-06-02T17:23:10.852Z,43.90
2018-06-02T17:25:38.674Z,43.90
2018-06-02T17:28:06.571Z,43.80
2018-06-02T17:30:35.158Z,43.90
2018-06-02T17:33:03.823Z,43.90
2018-06-02T17:35:31.677Z,43.90
2018-06-02T17:37:59.579Z,43.90
2018-06-02T17:40:28.379Z,44.00
2018-06-02T17:42:56.223Z,44.00
2018-06-02T17:45:24.977Z,44.00
2018-06-02T17:47:53.769Z,43.90
2018-06-02T17:50:21.525Z,44.00
2018-06-02T17:52:49.423Z,44.00
2018-06-02T17:55:18.901Z,44.00
2018-06-02T17:57:46.740Z,44.00
2018-06-02T18:00:14.564Z,44.00
2018-06-02T18:02:42.367Z,44.00
2018-06-02T18:05:10.097Z,44.00
2018-06-02T18:07:37.955Z,44.00
2018-06-02T18:10:06.612Z,44.00
2018-06-02T18:12:34.567Z,44.00
2018-06-02T18:15:02.480Z,44.00
2018-06-02T18:17:30.287Z,44.10
2018-06-02T18:19:58.026Z,44.10
2018-06-02T18:22:26.071Z,44.00
2018-06-02T18:24:53.921Z,44.10
2018-06-02T18:27:22.521Z,44.10
2018-06-02T18:29:50.339Z,44.10
2018-06-02T18:32:18.178Z,44.10
2018-06-02T18:34:45.913Z,44.10
2018-06-02T18:37:13.811Z,44.10
2018-06-02T18:39:41.660Z,44.10
2018-06-02T18:42:09.441Z,44.10
2018-06-02T18:44:37.313Z,44.10
2018-06-02T18:47:05.108Z,44.10
2018-06-02T18:49:33.691Z,44.20
2018-06-02T18:52:02.521Z,44.10
2018-06-02T18:54:30.481Z,44.10
2018-06-02T18:56:58.353Z,44.00
2018-06-02T18:59:26.507Z,44.10
2018-06-02T19:01:54.757Z,44.10
2018-06-02T19:04:23.987Z,44.10
2018-06-02T19:06:52.073Z,44.10
2018-06-02T19:09:20.286Z,44.10
2018-06-02T19:11:48.624Z,44.10
2018-06-02T19:14:16.701Z,44.10
2018-06-02T19:16:44.771Z,44.10
2018-06-02T19:19:13.135Z,44.10
2018-06-02T19:21:41.352Z,44.10
2018-06-02T19:24:09.283Z,44.20
2018-06-02T19:26:37.614Z,44.20
2018-06-02T19:29:06.339Z,44.20
2018-06-02T19:31:34.383Z,44.10
2018-06-02T19:34:02.409Z,44.20
2018-06-02T19:36:30.911Z,44.30
2018-06-02T19:39:00.110Z,44.30
2018-06-02T19:41:29.048Z,44.30
2018-06-02T19:43:57.338Z,44.20
2018-06-02T19:46:25.401Z,44.30
2018-06-02T19:48:53.661Z,44.30
2018-06-02T19:51:22.057Z,44.20
2018-06-02T19:53:49.970Z,44.30
2018-06-02T19:56:18.799Z,44.30
2018-06-02T19:58:47.257Z,44.20
2018-06-02T20:01:15.556Z,44.30
2018-06-02T20:03:44.047Z,44.30
2018-06-02T20:06:11.931Z,44.30
2018-06-02T20:08:40.081Z,44.20
2018-06-02T20:11:08.560Z,44.30
2018-06-02T20:13:36.571Z,44.30
2018-06-02T20:16:05.319Z,44.30
2018-06-02T20:18:33.568Z,44.30
2018-06-02T20:21:01.643Z,44.20
2018-06-02T20:23:29.777Z,44.30
2018-06-02T20:25:58.424Z,44.30
2018-06-02T20:28:26.492Z,44.20
2018-06-02T20:30:54.694Z,44.30
2018-06-02T20:33:23.501Z,44.30
2018-06-02T20:35:51.699Z,44.20
2018-06-02T20:38:19.652Z,44.30
2018-06-02T20:40:47.668Z,44.30
2018-06-02T20:43:15.644Z,44.30
2018-06-02T20:45:43.756Z,44.30
2018-06-02T20:48:11.702Z,44.40
2018-06-02T20:50:41.007Z,44.30
2018-06-02T20:53:09.854Z,44.30
2018-06-02T20:55:37.784Z,44.30
2018-06-02T20:58:05.799Z,44.30
2018-06-02T21:00:33.785Z,44.40
2018-06-02T21:03:01.707Z,44.40
2018-06-02T21:05:30.233Z,44.40
2018-06-02T21:07:59.237Z,44.40
2018-06-02T21:10:27.531Z,44.30
2018-06-02T21:12:55.781Z,44.30
2018-06-02T21:15:24.437Z,44.40
2018-06-02T21:17:52.404Z,44.30
2018-06-02T21:20:20.826Z,44.40
2018-06-02T21:22:49.170Z,44.40
2018-06-02T21:25:17.404Z,44.30
2018-06-02T21:27:45.532Z,44.40
2018-06-02T21:30:14.426Z,44.30
2018-06-02T21:32:43.692Z,45.00
2018-06-02T21:35:11.583Z,44.30
2018-06-02T21:37:39.829Z,44.40
2018-06-02T21:40:07.970Z,44.30
2018-06-02T21:42:36.984Z,44.40
2018-06-02T21:45:05.630Z,44.40
2018-06-02T21:47:33.882Z,44.30
2018-06-02T21:50:01.799Z,44.30
2018-06-02T21:52:29.946Z,44.40
2018-06-02T21:54:57.997Z,44.40
2018-06-02T21:57:25.987Z,44.30
2018-06-02T21:59:54.120Z,44.30
2018-06-02T22:02:22.855Z,44.40
2018-06-02T22:04:51.384Z,44.30
2018-06-02T22:07:20.084Z,44.30
2018-06-02T22:09:48.089Z,44.30
2018-06-02T22:12:16.164Z,44.30
2018-06-02T22:14:44.384Z,44.30
2018-06-02T22:17:13.102Z,44.40
2018-06-02T22:19:41.323Z,44.30
2018-06-02T22:22:09.327Z,44.90
2018-06-02T22:24:37.264Z,44.30
2018-06-02T22:27:05.094Z,44.40
2018-06-02T22:29:32.973Z,44.30
2018-06-02T22:32:00.777Z,44.40
2018-06-02T22:34:29.532Z,44.40
2018-06-02T22:36:57.427Z,44.30
2018-06-02T22:39:25.522Z,44.40
2018-06-02T22:41:53.461Z,44.30
2018-06-02T22:44:22.119Z,44.40
2018-06-02T22:46:50.064Z,44.30
2018-06-02T22:49:17.904Z,44.40
2018-06-02T22:51:45.779Z,44.40
2018-06-02T22:54:13.624Z,44.30
2018-06-02T22:56:41.623Z,44.30
2018-06-02T22:59:09.558Z,44.30
2018-06-02T23:01:37.463Z,44.40
2018-06-02T23:04:05.606Z,44.40
2018-06-02T23:06:33.501Z,44.40
2018-06-02T23:09:01.361Z,44.30
2018-06-02T23:11:29.230Z,44.40
2018-06-02T23:13:57.163Z,44.40
2018-06-02T23:16:25.807Z,44.30
2018-06-02T23:18:53.941Z,44.40
2018-06-02T23:21:21.864Z,44.40
2018-06-02T23:23:50.573Z,44.40
2018-06-02T23:26:18.662Z,44.30
2018-06-02T23:28:47.038Z,44.40
2018-06-02T23:31:15.043Z,44.40
2018-06-02T23:33:43.059Z,44.40
2018-06-02T23:36:10.970Z,44.40
2018-06-02T23:38:38.833Z,44.40
2018-06-02T23:41:06.901Z,44.30
2018-06-02T23:43:34.873Z,44.40
2018-06-02T23:46:02.926Z,44.40
2018-06-02T23:48:31.274Z,44.30
2018-06-02T23:50:59.401Z,44.30
2018-06-02T23:53:27.402Z,44.40
2018-06-02T23:55:55.389Z,44.40
2018-06-02T23:58:23.481Z,44.40
